createdAt,value
2019-06-26T00:00:25.407Z,99.99
2019-06-26T00:01:25.501Z,99.99
2019-06-26T00:02:25.275Z,99.99
2019-06-26T00:03:25.308Z,99.99
2019-06-26T00:04:25.106Z,99.99
2019-06-26T00:05:25.032Z,99.99
2019-06-26T00:06:25.126Z,99.99
2019-06-26T00:07:24.890Z,99.99
2019-06-26T00:08:24.799Z,99.99
2019-06-26T00:09:24.942Z,99.99
2019-06-26T00:10:24.638Z,99.99
2019-06-26T00:11:24.561Z,99.99
2019-06-26T00:12:24.579Z,99.99
2019-06-26T00:13:26.741Z,99.99
2019-06-26T00:14:24.349Z,99.99
2019-06-26T00:15:24.507Z,99.99
2019-06-26T00:16:24.204Z,99.99
2019-06-26T00:17:24.202Z,99.99
2019-06-26T00:18:24.054Z,99.99
2019-06-26T00:19:23.982Z,99.99
2019-06-26T00:20:23.931Z,99.99
2019-06-26T00:21:23.996Z,99.99
2019-06-26T00:22:23.738Z,99.99
2019-06-26T00:23:23.804Z,99.99
2019-06-26T00:24:23.563Z,99.99
2019-06-26T00:25:23.615Z,99.99
2019-06-26T00:26:23.411Z,99.99
2019-06-26T00:27:23.454Z,99.99
2019-06-26T00:28:23.261Z,99.99
2019-06-26T00:29:23.174Z,99.99
2019-06-26T00:30:23.235Z,99.99
2019-06-26T00:31:23.028Z,99.99
2019-06-26T00:32:22.960Z,99.99
2019-06-26T00:33:23.058Z,99.99
2019-06-26T00:34:22.796Z,99.99
2019-06-26T00:35:22.710Z,99.99
2019-06-26T00:36:22.661Z,99.99
2019-06-26T00:37:22.582Z,99.99
2019-06-26T00:38:22.498Z,99.99
2019-06-26T00:39:22.485Z,99.99
2019-06-26T00:40:22.326Z,99.99
2019-06-26T00:41:22.246Z,99.99
2019-06-26T00:42:22.321Z,99.99
2019-06-26T00:43:22.103Z,99.99
2019-06-26T00:44:22.022Z,99.99
2019-06-26T00:45:22.105Z,99.99
2019-06-26T00:46:21.872Z,99.99
2019-06-26T00:47:21.809Z,99.99
2019-06-26T00:48:21.945Z,99.99
2019-06-26T00:49:21.642Z,99.99
2019-06-26T00:50:21.562Z,99.99
2019-06-26T00:51:21.535Z,99.99
2019-06-26T00:52:21.414Z,99.99
2019-06-26T00:53:21.327Z,99.99
2019-06-26T00:54:21.245Z,99.99
2019-06-26T00:55:21.352Z,99.99
2019-06-26T00:56:21.094Z,99.99
2019-06-26T00:57:21.027Z,99.99
2019-06-26T00:58:20.936Z,99.99
2019-06-26T00:59:20.970Z,99.99
2019-06-26T01:00:20.792Z,99.99
2019-06-26T01:01:20.778Z,99.99
2019-06-26T01:02:20.643Z,99.99
2019-06-26T01:03:20.586Z,99.99
2019-06-26T01:04:20.475Z,99.99
2019-06-26T01:05:20.393Z,99.99
2019-06-26T01:06:20.402Z,99.99
2019-06-26T01:07:20.248Z,99.99
2019-06-26T01:08:20.201Z,99.99
2019-06-26T01:09:20.217Z,99.99
2019-06-26T01:10:20.016Z,99.99
2019-06-26T01:11:21.663Z,99.99
2019-06-26T01:12:19.872Z,99.99
2019-06-26T01:13:19.836Z,99.99
2019-06-26T01:14:19.696Z,99.99
2019-06-26T01:15:19.647Z,99.99
2019-06-26T01:16:19.545Z,99.99
2019-06-26T01:17:19.690Z,99.99
2019-06-26T01:18:19.391Z,99.99
2019-06-26T01:19:19.306Z,99.99
2019-06-26T01:20:19.272Z,99.99
2019-06-26T01:21:19.157Z,99.99
2019-06-26T01:22:19.097Z,99.99
2019-06-26T01:23:19.081Z,99.99
2019-06-26T01:24:18.925Z,99.99
2019-06-26T01:25:18.854Z,99.99
2019-06-26T01:26:18.907Z,99.99
2019-06-26T01:27:18.744Z,99.99
2019-06-26T01:28:18.610Z,99.99
2019-06-26T01:29:18.719Z,99.99
2019-06-26T01:30:18.461Z,99.99
2019-06-26T01:31:18.519Z,99.99
2019-06-26T01:32:18.360Z,99.99
2019-06-26T01:33:18.332Z,99.99
2019-06-26T01:34:18.142Z,99.99
2019-06-26T01:35:18.135Z,99.99
2019-06-26T01:36:17.995Z,99.99
2019-06-26T01:37:17.976Z,99.99
2019-06-26T01:38:17.841Z,99.99
2019-06-26T01:39:17.959Z,99.99
2019-06-26T01:40:17.678Z,99.99
2019-06-26T01:41:17.767Z,99.99
2019-06-26T01:42:17.535Z,99.99
2019-06-26T01:43:17.575Z,99.99
2019-06-26T01:44:17.373Z,99.99
2019-06-26T01:45:17.382Z,99.99
2019-06-26T01:46:17.220Z,99.99
2019-06-26T01:47:17.157Z,99.99
2019-06-26T01:48:17.203Z,99.99
2019-06-26T01:49:16.981Z,99.99
2019-06-26T01:50:16.905Z,99.99
2019-06-26T01:51:17.018Z,99.99
2019-06-26T01:52:16.761Z,99.99
2019-06-26T01:53:16.853Z,99.99
2019-06-26T01:54:16.594Z,99.99
2019-06-26T01:55:16.516Z,99.99
2019-06-26T01:56:16.643Z,99.99
2019-06-26T01:57:16.363Z,99.99
2019-06-26T01:58:16.302Z,99.99
2019-06-26T01:59:16.250Z,99.99
2019-06-26T02:00:16.128Z,99.99
2019-06-26T02:01:16.053Z,99.99
2019-06-26T02:02:16.065Z,99.99
2019-06-26T02:03:15.900Z,99.99
2019-06-26T02:04:15.919Z,99.99
2019-06-26T02:05:15.883Z,99.99
2019-06-26T02:06:15.666Z,99.99
2019-06-26T02:07:15.578Z,99.99
2019-06-26T02:08:15.730Z,99.99
2019-06-26T02:09:15.427Z,99.99
2019-06-26T02:10:15.352Z,99.99
2019-06-26T02:11:15.305Z,99.99
2019-06-26T02:12:15.194Z,99.99
2019-06-26T02:13:15.129Z,99.99
2019-06-26T02:14:30.036Z,99.99
2019-06-26T02:15:14.953Z,99.99
2019-06-26T02:16:14.879Z,99.99
2019-06-26T02:17:14.932Z,99.99
2019-06-26T02:18:14.749Z,99.99
2019-06-26T02:19:14.646Z,99.99
2019-06-26T02:20:14.751Z,99.99
2019-06-26T02:21:14.485Z,99.99
2019-06-26T02:22:15.582Z,99.99
2019-06-26T02:23:14.342Z,99.99
2019-06-26T02:24:14.366Z,99.99
2019-06-26T02:25:14.174Z,99.99
2019-06-26T02:26:14.103Z,99.99
2019-06-26T02:27:14.180Z,99.99
2019-06-26T02:28:13.955Z,99.99
2019-06-26T02:29:13.877Z,99.99
2019-06-26T02:30:13.999Z,99.99
2019-06-26T02:31:13.709Z,99.99
2019-06-26T02:32:13.830Z,99.99
2019-06-26T02:33:13.569Z,99.99
2019-06-26T02:34:13.612Z,99.99
2019-06-26T02:35:13.401Z,99.99
2019-06-26T02:36:13.316Z,99.99
2019-06-26T02:37:13.249Z,99.99
2019-06-26T02:38:13.190Z,99.99
2019-06-26T02:39:13.082Z,99.99
2019-06-26T02:40:13.006Z,99.99
2019-06-26T02:41:12.928Z,99.99
2019-06-26T02:42:13.055Z,99.99
2019-06-26T02:43:12.787Z,99.99
2019-06-26T02:44:12.691Z,99.99
2019-06-26T02:45:12.614Z,99.99
2019-06-26T02:46:12.677Z,99.99
2019-06-26T02:47:19.751Z,99.99
2019-06-26T02:48:12.509Z,99.99
2019-06-26T02:49:12.302Z,99.99
2019-06-26T02:50:12.299Z,99.99
2019-06-26T02:51:12.147Z,99.99
2019-06-26T02:52:12.065Z,99.99
2019-06-26T02:53:12.134Z,99.99
2019-06-26T02:54:11.912Z,99.99
2019-06-26T02:55:11.839Z,99.99
2019-06-26T02:56:11.917Z,99.99
2019-06-26T02:57:11.681Z,99.99
2019-06-26T02:58:11.617Z,99.99
2019-06-26T02:59:11.730Z,99.99
2019-06-26T03:00:11.445Z,99.99
2019-06-26T03:01:11.362Z,99.99
2019-06-26T03:02:11.344Z,99.99
2019-06-26T03:03:11.219Z,99.99
2019-06-26T03:04:11.152Z,99.99
2019-06-26T03:05:11.050Z,99.99
2019-06-26T03:06:11.163Z,99.99
2019-06-26T03:07:10.895Z,99.99
2019-06-26T03:08:10.833Z,99.99
2019-06-26T03:09:10.754Z,99.99
2019-06-26T03:10:10.666Z,99.99
2019-06-26T03:11:10.583Z,99.99
2019-06-26T03:12:10.589Z,99.99
2019-06-26T03:13:10.440Z,99.99
2019-06-26T03:14:10.403Z,99.99
2019-06-26T03:15:10.278Z,99.99
2019-06-26T03:16:10.408Z,99.99
2019-06-26T03:17:10.109Z,99.99
2019-06-26T03:18:10.254Z,99.99
2019-06-26T03:19:09.963Z,99.99
2019-06-26T03:20:10.045Z,99.99
2019-06-26T03:21:09.793Z,99.99
2019-06-26T03:22:09.721Z,99.99
2019-06-26T03:23:09.877Z,99.99
2019-06-26T03:24:09.560Z,99.99
2019-06-26T03:25:09.490Z,99.99
2019-06-26T03:26:09.474Z,99.99
2019-06-26T03:27:09.362Z,99.99
2019-06-26T03:28:09.260Z,99.99
2019-06-26T03:29:09.266Z,99.99
2019-06-26T03:30:09.097Z,99.99
2019-06-26T03:31:09.023Z,99.99
2019-06-26T03:32:09.084Z,99.99
2019-06-26T03:33:08.873Z,99.99
2019-06-26T03:34:08.892Z,99.99
2019-06-26T03:35:08.701Z,99.99
2019-06-26T03:36:08.624Z,99.99
2019-06-26T03:37:08.554Z,99.99
2019-06-26T03:38:08.551Z,99.99
2019-06-26T03:39:08.401Z,99.99
2019-06-26T03:40:08.309Z,99.99
2019-06-26T03:41:08.234Z,99.99
2019-06-26T03:42:08.329Z,99.99
2019-06-26T03:43:08.133Z,99.99
2019-06-26T03:44:07.996Z,99.99
2019-06-26T03:45:24.112Z,99.99
2019-06-26T03:46:07.842Z,99.99
2019-06-26T03:47:07.764Z,99.99
2019-06-26T03:48:07.785Z,99.99
2019-06-26T03:49:07.605Z,99.99
2019-06-26T03:50:07.564Z,99.99
2019-06-26T03:51:07.455Z,99.99
2019-06-26T03:52:07.575Z,99.99
2019-06-26T03:53:07.341Z,99.99
2019-06-26T03:54:07.387Z,99.99
2019-06-26T03:55:07.131Z,99.99
2019-06-26T03:56:07.194Z,99.99
2019-06-26T03:57:06.980Z,99.99
2019-06-26T03:58:06.904Z,99.99
2019-06-26T03:59:07.042Z,99.99
2019-06-26T04:00:06.743Z,99.99
2019-06-26T04:01:06.669Z,99.99
2019-06-26T04:02:06.624Z,99.99
2019-06-26T04:03:06.510Z,99.99
2019-06-26T04:04:06.460Z,99.99
2019-06-26T04:05:06.349Z,99.99
2019-06-26T04:06:06.439Z,99.99
2019-06-26T04:07:06.215Z,99.99
2019-06-26T04:08:06.118Z,99.99
2019-06-26T04:09:06.081Z,99.99
2019-06-26T04:10:05.958Z,99.99
2019-06-26T04:11:05.879Z,99.99
2019-06-26T04:12:05.879Z,99.99
2019-06-26T04:13:05.723Z,99.99
2019-06-26T04:14:05.662Z,99.99
2019-06-26T04:15:05.679Z,99.99
2019-06-26T04:16:05.493Z,99.99
2019-06-26T04:17:05.419Z,99.99
2019-06-26T04:18:05.498Z,99.99
2019-06-26T04:19:05.266Z,99.99
2019-06-26T04:20:05.307Z,99.99
2019-06-26T04:21:05.110Z,99.99
2019-06-26T04:22:05.116Z,99.99
2019-06-26T04:23:04.945Z,99.99
2019-06-26T04:24:04.969Z,99.99
2019-06-26T04:25:04.787Z,99.99
2019-06-26T04:26:04.729Z,99.99
2019-06-26T04:27:04.632Z,99.99
2019-06-26T04:28:06.401Z,99.99
2019-06-26T04:29:04.485Z,99.99
2019-06-26T04:30:04.553Z,99.99
2019-06-26T04:31:04.314Z,99.99
2019-06-26T04:32:04.361Z,99.99
2019-06-26T04:33:04.167Z,99.99
2019-06-26T04:34:04.199Z,99.99
2019-06-26T04:35:04.007Z,99.99
2019-06-26T04:36:03.978Z,99.99
2019-06-26T04:37:03.849Z,99.99
2019-06-26T04:38:03.989Z,99.99
2019-06-26T04:39:03.706Z,99.99
2019-06-26T04:40:03.805Z,99.99
2019-06-26T04:41:03.546Z,99.99
2019-06-26T04:42:03.633Z,99.99
2019-06-26T04:43:03.385Z,99.99
2019-06-26T04:44:03.313Z,99.99
2019-06-26T04:45:03.227Z,99.99
2019-06-26T04:46:03.225Z,99.99
2019-06-26T04:47:03.076Z,99.99
2019-06-26T04:48:05.972Z,99.99
2019-06-26T04:49:02.930Z,99.99
2019-06-26T04:50:03.050Z,99.99
2019-06-26T04:51:02.764Z,99.99
2019-06-26T04:52:02.680Z,99.99
2019-06-26T04:53:02.612Z,99.99
2019-06-26T04:54:02.544Z,99.99
2019-06-26T04:55:02.447Z,99.99
2019-06-26T04:56:02.472Z,99.99
2019-06-26T04:57:02.301Z,99.99
2019-06-26T04:58:02.220Z,99.99
2019-06-26T04:59:02.316Z,99.99
2019-06-26T05:00:02.190Z,99.99
2019-06-26T05:01:02.000Z,99.99
2019-06-26T05:02:02.102Z,99.99
2019-06-26T05:03:01.829Z,99.99
2019-06-26T05:04:01.823Z,99.99
2019-06-26T05:05:01.744Z,99.99
2019-06-26T05:06:01.609Z,99.99
2019-06-26T05:07:01.522Z,99.99
2019-06-26T05:08:01.529Z,99.99
2019-06-26T05:09:01.383Z,99.99
2019-06-26T05:10:01.345Z,99.99
2019-06-26T05:11:01.222Z,99.99
2019-06-26T05:12:01.157Z,99.99
2019-06-26T05:13:01.069Z,99.99
2019-06-26T05:14:01.051Z,99.99
2019-06-26T05:15:00.904Z,99.99
2019-06-26T05:16:13.820Z,99.99
2019-06-26T05:17:00.754Z,99.99
2019-06-26T05:18:00.691Z,99.99
2019-06-26T05:19:00.617Z,99.99
2019-06-26T05:20:00.531Z,99.99
2019-06-26T05:21:00.455Z,99.99
2019-06-26T05:22:00.389Z,99.99
2019-06-26T05:23:00.294Z,99.99
2019-06-26T05:24:00.234Z,99.99
2019-06-26T05:25:00.240Z,99.99
2019-06-26T05:26:00.068Z,99.99
2019-06-26T05:26:59.999Z,99.99
2019-06-26T05:28:00.020Z,99.99
2019-06-26T05:28:59.849Z,99.99
2019-06-26T05:29:59.790Z,99.99
2019-06-26T05:30:59.686Z,99.99
2019-06-26T05:31:59.609Z,99.99
2019-06-26T05:32:59.645Z,99.99
2019-06-26T05:33:59.478Z,99.99
2019-06-26T05:34:59.384Z,99.99
2019-06-26T05:35:59.303Z,99.99
2019-06-26T05:36:59.295Z,99.99
2019-06-26T05:37:59.158Z,99.99
2019-06-26T05:38:59.101Z,99.99
2019-06-26T05:39:59.075Z,99.75
2019-06-26T05:40:58.928Z,99.95
2019-06-26T05:41:58.852Z,98.88
2019-06-26T05:42:58.893Z,99.07
2019-06-26T05:43:58.711Z,99.65
2019-06-26T05:44:58.624Z,99.65
2019-06-26T05:45:58.763Z,99.55
2019-06-26T05:46:58.471Z,98.78
2019-06-26T05:47:58.399Z,99.90
2019-06-26T05:48:58.336Z,99.60
2019-06-26T05:49:58.324Z,98.93
2019-06-26T05:50:58.192Z,98.83
2019-06-26T05:51:58.096Z,98.63
2019-06-26T05:52:58.022Z,98.44
2019-06-26T05:53:58.197Z,98.68
2019-06-26T05:54:57.876Z,97.81
2019-06-26T05:55:57.804Z,97.52
2019-06-26T05:56:57.727Z,96.64
2019-06-26T05:57:57.761Z,97.17
2019-06-26T05:58:57.591Z,96.93
2019-06-26T05:59:57.547Z,98.00
2019-06-26T06:00:57.439Z,96.74
2019-06-26T06:01:57.379Z,97.13
2019-06-26T06:02:57.280Z,96.25
2019-06-26T06:03:57.214Z,96.55
2019-06-26T06:04:57.200Z,96.93
2019-06-26T06:05:57.068Z,97.61
2019-06-26T06:06:56.978Z,97.03
2019-06-26T06:07:57.010Z,96.55
2019-06-26T06:08:56.902Z,96.64
2019-06-26T06:09:56.852Z,96.45
2019-06-26T06:10:58.313Z,96.45
2019-06-26T06:11:56.625Z,96.74
2019-06-26T06:12:56.534Z,95.91
2019-06-26T06:13:56.474Z,95.72
2019-06-26T06:14:56.475Z,96.01
2019-06-26T06:15:56.307Z,95.23
2019-06-26T06:16:56.236Z,95.28
2019-06-26T06:17:56.257Z,96.20
2019-06-26T06:18:56.094Z,94.55
2019-06-26T06:19:56.024Z,95.42
2019-06-26T06:20:56.073Z,95.32
2019-06-26T06:21:55.871Z,95.52
2019-06-26T06:22:55.791Z,94.06
2019-06-26T06:23:55.892Z,95.13
2019-06-26T06:24:55.878Z,95.32
2019-06-26T06:25:55.587Z,95.37
2019-06-26T06:26:55.706Z,94.84
2019-06-26T06:27:55.424Z,95.23
2019-06-26T06:28:55.376Z,95.57
2019-06-26T06:29:55.548Z,95.28
2019-06-26T06:30:55.204Z,95.37
2019-06-26T06:31:55.330Z,94.31
2019-06-26T06:32:55.070Z,94.40
2019-06-26T06:33:54.989Z,94.89
2019-06-26T06:34:54.970Z,93.76
2019-06-26T06:35:54.837Z,94.35
2019-06-26T06:36:54.765Z,92.89
2019-06-26T06:37:54.749Z,93.76
2019-06-26T06:38:54.617Z,92.79
2019-06-26T06:39:54.563Z,94.06
2019-06-26T06:40:54.569Z,94.49
2019-06-26T06:41:54.408Z,93.66
2019-06-26T06:42:54.328Z,93.08
2019-06-26T06:43:54.283Z,93.57
2019-06-26T06:44:54.201Z,93.96
2019-06-26T06:45:54.191Z,94.74
2019-06-26T06:47:04.066Z,94.35
2019-06-26T06:47:54.026Z,94.01
2019-06-26T06:48:53.910Z,93.13
2019-06-26T06:49:54.040Z,93.32
2019-06-26T06:50:53.755Z,92.20
2019-06-26T06:51:53.820Z,91.71
2019-06-26T06:52:53.619Z,91.71
2019-06-26T06:53:53.628Z,91.42
2019-06-26T06:54:53.490Z,90.93
2019-06-26T06:55:53.436Z,91.66
2019-06-26T06:56:53.323Z,91.27
2019-06-26T06:57:53.448Z,88.89
2019-06-26T06:58:53.207Z,90.45
2019-06-26T06:59:53.295Z,89.76
2019-06-26T07:00:53.089Z,90.64
2019-06-26T07:01:53.067Z,90.35
2019-06-26T07:02:52.899Z,90.83
2019-06-26T07:03:52.873Z,91.95
2019-06-26T07:04:52.769Z,89.32
2019-06-26T07:05:52.686Z,88.79
2019-06-26T07:06:52.846Z,89.32
2019-06-26T07:07:52.543Z,89.71
2019-06-26T07:08:52.493Z,90.49
2019-06-26T07:09:52.561Z,89.32
2019-06-26T07:10:52.331Z,89.07
2019-06-26T07:11:52.316Z,90.73
2019-06-26T07:12:52.193Z,89.51
2019-06-26T07:13:52.500Z,89.65
2019-06-26T07:14:52.079Z,88.29
2019-06-26T07:16:06.926Z,88.29
2019-06-26T07:16:51.907Z,88.93
2019-06-26T07:17:51.840Z,89.17
2019-06-26T07:18:51.977Z,88.39
2019-06-26T07:19:51.716Z,88.15
2019-06-26T07:20:51.627Z,87.99
2019-06-26T07:21:51.767Z,89.51
2019-06-26T07:22:51.495Z,90.34
2019-06-26T07:23:51.418Z,87.70
2019-06-26T07:24:51.376Z,87.66
2019-06-26T07:25:52.981Z,89.42
2019-06-26T07:26:52.657Z,89.07
2019-06-26T07:27:51.148Z,88.87
2019-06-26T07:28:51.201Z,87.99
2019-06-26T07:29:51.017Z,86.93
2019-06-26T07:30:50.936Z,87.51
2019-06-26T07:31:51.018Z,86.68
2019-06-26T07:32:50.867Z,86.97
2019-06-26T07:33:50.760Z,87.46
2019-06-26T07:34:50.750Z,86.48
2019-06-26T07:35:50.587Z,88.62
2019-06-26T07:36:50.643Z,86.29
2019-06-26T07:37:50.463Z,85.02
2019-06-26T07:38:51.563Z,85.31
2019-06-26T07:39:50.326Z,85.31
2019-06-26T07:40:50.343Z,85.99
2019-06-26T07:41:50.195Z,85.02
2019-06-26T07:42:50.156Z,86.19
2019-06-26T07:43:50.048Z,86.15
2019-06-26T07:44:49.989Z,86.09
2019-06-26T07:45:49.972Z,85.95
2019-06-26T07:46:49.843Z,87.36
2019-06-26T07:47:49.770Z,87.16
2019-06-26T07:48:49.900Z,86.09
2019-06-26T07:49:49.643Z,85.99
2019-06-26T07:50:49.564Z,86.38
2019-06-26T07:51:49.710Z,85.60
2019-06-26T07:52:49.505Z,85.41
2019-06-26T07:53:49.364Z,85.80
2019-06-26T07:54:49.308Z,85.02
2019-06-26T07:55:49.227Z,85.02
2019-06-26T07:56:49.184Z,84.63
2019-06-26T07:57:49.136Z,85.80
2019-06-26T07:58:49.016Z,85.31
2019-06-26T07:59:49.014Z,84.82
2019-06-26T08:00:48.899Z,85.80
2019-06-26T08:01:48.820Z,86.91
2019-06-26T08:02:48.759Z,83.98
2019-06-26T08:03:48.690Z,85.64
2019-06-26T08:04:48.656Z,85.06
2019-06-26T08:05:48.544Z,84.47
2019-06-26T08:06:48.583Z,85.25
2019-06-26T08:07:48.415Z,85.35
2019-06-26T08:08:48.371Z,83.83
2019-06-26T08:09:48.428Z,82.65
2019-06-26T08:10:48.206Z,84.31
2019-06-26T08:11:48.171Z,83.11
2019-06-26T08:12:48.073Z,82.81
2019-06-26T08:13:48.222Z,82.71
2019-06-26T08:14:47.964Z,83.40
2019-06-26T08:15:47.878Z,83.40
2019-06-26T08:16:47.810Z,81.64
2019-06-26T08:17:59.727Z,83.89
2019-06-26T08:18:47.700Z,83.24
2019-06-26T08:19:47.624Z,82.65
2019-06-26T08:21:07.261Z,82.26
2019-06-26T08:21:47.498Z,81.43
2019-06-26T08:22:47.406Z,82.70
2019-06-26T08:23:47.470Z,82.05
2019-06-26T08:24:47.297Z,81.46
2019-06-26T08:25:47.206Z,80.19
2019-06-26T08:26:47.280Z,80.49
2019-06-26T08:27:47.079Z,79.71
2019-06-26T08:28:47.063Z,79.51
2019-06-26T08:29:47.136Z,80.00
2019-06-26T08:30:46.886Z,80.49
2019-06-26T08:31:46.905Z,79.96
2019-06-26T08:32:46.749Z,80.44
2019-06-26T08:33:47.738Z,80.05
2019-06-26T08:34:46.637Z,80.74
2019-06-26T08:35:46.550Z,80.05
2019-06-26T08:36:46.590Z,80.74
2019-06-26T08:37:46.542Z,81.13
2019-06-26T08:38:46.371Z,79.66
2019-06-26T08:39:46.300Z,81.27
2019-06-26T08:40:46.237Z,79.96
2019-06-26T08:41:46.155Z,79.96
2019-06-26T08:42:46.158Z,79.90
2019-06-26T08:43:46.027Z,80.58
2019-06-26T08:44:46.018Z,81.99
2019-06-26T08:45:45.930Z,79.84
2019-06-26T08:46:45.873Z,79.19
2019-06-26T08:47:45.782Z,77.78
2019-06-26T08:48:45.706Z,78.61
2019-06-26T08:49:45.798Z,77.78
2019-06-26T08:50:45.630Z,79.71
2019-06-26T08:51:45.521Z,80.33
2019-06-26T08:52:45.451Z,79.25
2019-06-26T08:53:45.376Z,78.67
2019-06-26T08:54:45.315Z,78.08
2019-06-26T08:55:45.266Z,79.16
2019-06-26T08:56:45.193Z,79.94
2019-06-26T08:57:45.169Z,78.67
2019-06-26T08:58:45.058Z,78.96
2019-06-26T08:59:44.987Z,78.12
2019-06-26T09:00:44.955Z,79.10
2019-06-26T09:01:44.894Z,77.17
2019-06-26T09:02:44.790Z,79.03
2019-06-26T09:03:44.733Z,77.17
2019-06-26T09:04:44.668Z,76.39
2019-06-26T09:05:48.481Z,77.04
2019-06-26T09:06:44.535Z,77.73
2019-06-26T09:07:44.536Z,77.83
2019-06-26T09:08:44.429Z,78.02
2019-06-26T09:09:44.343Z,77.57
2019-06-26T09:10:45.262Z,77.27
2019-06-26T09:11:44.215Z,76.88
2019-06-26T09:12:44.159Z,76.78
2019-06-26T09:13:44.086Z,76.78
2019-06-26T09:14:44.036Z,76.59
2019-06-26T09:15:43.973Z,77.90
2019-06-26T09:16:43.891Z,75.32
2019-06-26T09:17:43.849Z,75.51
2019-06-26T09:18:43.768Z,75.71
2019-06-26T09:19:43.702Z,75.38
2019-06-26T09:20:43.693Z,75.77
2019-06-26T09:21:43.575Z,78.35
2019-06-26T09:22:43.522Z,76.10
2019-06-26T09:23:43.455Z,73.39
2019-06-26T09:24:43.394Z,73.10
2019-06-26T09:25:43.338Z,73.29
2019-06-26T09:26:43.266Z,73.39
2019-06-26T09:27:43.194Z,73.88
2019-06-26T09:28:43.151Z,73.49
2019-06-26T09:29:43.073Z,73.36
2019-06-26T09:30:43.028Z,73.75
2019-06-26T09:31:42.944Z,76.39
2019-06-26T09:32:42.890Z,77.08
2019-06-26T09:33:42.818Z,75.55
2019-06-26T09:34:42.786Z,75.15
2019-06-26T09:35:42.705Z,74.27
2019-06-26T09:36:42.625Z,74.51
2019-06-26T09:37:42.576Z,72.64
2019-06-26T09:38:42.500Z,73.62
2019-06-26T09:39:42.438Z,74.02
2019-06-26T09:40:42.399Z,70.84
2019-06-26T09:41:42.310Z,71.83
2019-06-26T09:42:42.256Z,72.02
2019-06-26T09:43:42.183Z,73.49
2019-06-26T09:44:42.131Z,71.14
2019-06-26T09:45:42.074Z,72.55
2019-06-26T09:46:42.020Z,75.59
2019-06-26T09:47:41.938Z,73.33
2019-06-26T09:48:52.309Z,73.52
2019-06-26T09:49:41.923Z,74.64
2019-06-26T09:50:41.763Z,73.85
2019-06-26T09:51:41.690Z,71.80
2019-06-26T09:52:41.619Z,70.81
2019-06-26T09:53:46.994Z,69.84
2019-06-26T09:54:41.498Z,71.41
2019-06-26T09:55:41.446Z,73.96
2019-06-26T09:56:41.375Z,72.38
2019-06-26T09:57:41.311Z,72.45
2019-06-26T09:58:41.302Z,74.21
2019-06-26T09:59:41.192Z,73.75
2019-06-26T10:00:41.140Z,72.48
2019-06-26T10:01:41.065Z,73.17
2019-06-26T10:02:41.022Z,72.48
2019-06-26T10:03:44.074Z,73.46
2019-06-26T10:04:40.879Z,73.27
2019-06-26T10:05:40.826Z,71.53
2019-06-26T10:06:40.768Z,72.52
2019-06-26T10:07:40.687Z,71.34
2019-06-26T10:08:40.635Z,71.53
2019-06-26T10:09:40.570Z,72.22
2019-06-26T10:10:40.531Z,72.13
2019-06-26T10:11:40.451Z,71.53
2019-06-26T10:12:40.385Z,71.34
2019-06-26T10:13:40.322Z,71.64
2019-06-26T10:14:47.222Z,72.61
2019-06-26T10:15:40.217Z,71.73
2019-06-26T10:16:40.142Z,71.31
2019-06-26T10:17:40.076Z,71.41
2019-06-26T10:18:40.120Z,73.17
2019-06-26T10:19:39.960Z,72.58
2019-06-26T10:20:39.910Z,72.45
2019-06-26T10:21:39.830Z,72.74
2019-06-26T10:22:39.769Z,72.74
2019-06-26T10:23:39.728Z,74.41
2019-06-26T10:24:39.669Z,73.36
2019-06-26T10:25:39.606Z,71.99
2019-06-26T10:26:39.525Z,72.05
2019-06-26T10:27:39.459Z,73.13
2019-06-26T10:28:39.405Z,73.07
2019-06-26T10:29:39.369Z,71.70
2019-06-26T10:30:39.564Z,70.91
2019-06-26T10:31:39.228Z,71.89
2019-06-26T10:32:39.158Z,71.21
2019-06-26T10:33:39.087Z,71.37
2019-06-26T10:34:39.036Z,71.50
2019-06-26T10:35:38.979Z,72.58
2019-06-26T10:36:38.906Z,72.68
2019-06-26T10:37:38.862Z,72.58
2019-06-26T10:38:38.812Z,73.17
2019-06-26T10:39:38.719Z,72.58
2019-06-26T10:40:38.681Z,72.58
2019-06-26T10:41:38.615Z,71.24
2019-06-26T10:42:38.542Z,70.85
2019-06-26T10:43:38.489Z,72.61
2019-06-26T10:44:38.411Z,72.71
2019-06-26T10:45:38.371Z,71.53
2019-06-26T10:46:38.298Z,71.47
2019-06-26T10:47:39.853Z,72.74
2019-06-26T10:48:38.174Z,72.90
2019-06-26T10:49:38.118Z,73.43
2019-06-26T10:50:48.247Z,71.76
2019-06-26T10:51:37.990Z,71.70
2019-06-26T10:52:37.963Z,72.05
2019-06-26T10:53:37.884Z,71.95
2019-06-26T10:54:37.807Z,72.58
2019-06-26T10:55:37.757Z,73.07
2019-06-26T10:56:37.683Z,70.81
2019-06-26T10:57:37.623Z,70.95
2019-06-26T10:58:37.569Z,73.21
2019-06-26T10:59:37.497Z,72.22
2019-06-26T11:00:37.458Z,71.04
2019-06-26T11:01:37.382Z,72.52
2019-06-26T11:02:37.316Z,70.65
2019-06-26T11:03:37.252Z,70.85
2019-06-26T11:04:37.223Z,71.31
2019-06-26T11:05:37.242Z,70.06
2019-06-26T11:06:37.376Z,69.84
2019-06-26T11:07:37.007Z,70.81
2019-06-26T11:08:36.954Z,70.85
2019-06-26T11:09:36.890Z,71.34
2019-06-26T11:10:36.878Z,71.44
2019-06-26T11:11:36.776Z,69.96
2019-06-26T11:12:36.727Z,70.52
2019-06-26T11:13:36.802Z,71.41
2019-06-26T11:14:36.584Z,71.34
2019-06-26T11:15:36.535Z,71.67
2019-06-26T11:16:36.483Z,73.44
2019-06-26T11:17:36.442Z,71.04
2019-06-26T11:18:36.341Z,70.59
2019-06-26T11:19:43.846Z,70.89
2019-06-26T11:20:36.231Z,71.08
2019-06-26T11:21:36.168Z,71.67
2019-06-26T11:22:36.105Z,73.24
2019-06-26T11:23:36.038Z,73.67
2019-06-26T11:24:35.980Z,69.21
2019-06-26T11:25:35.917Z,69.41
2019-06-26T11:26:35.875Z,70.29
2019-06-26T11:27:35.802Z,70.89
2019-06-26T11:28:35.737Z,69.51
2019-06-26T11:29:35.671Z,69.71
2019-06-26T11:30:35.623Z,69.77
2019-06-26T11:31:35.565Z,69.28
2019-06-26T11:32:35.491Z,69.38
2019-06-26T11:33:35.439Z,70.26
2019-06-26T11:34:35.364Z,69.57
2019-06-26T11:35:35.314Z,71.04
2019-06-26T11:36:35.274Z,68.52
2019-06-26T11:37:35.190Z,68.20
2019-06-26T11:38:35.125Z,70.26
2019-06-26T11:39:35.068Z,70.26
2019-06-26T11:40:35.011Z,70.16
2019-06-26T11:41:34.961Z,69.31
2019-06-26T11:42:34.940Z,70.29
2019-06-26T11:43:34.824Z,68.04
2019-06-26T11:44:34.791Z,68.04
2019-06-26T11:45:34.704Z,66.76
2019-06-26T11:46:36.940Z,66.04
2019-06-26T11:47:34.582Z,69.28
2019-06-26T11:48:34.525Z,70.89
2019-06-26T11:49:34.459Z,68.13
2019-06-26T11:50:34.400Z,69.02
2019-06-26T11:51:34.361Z,67.77
2019-06-26T11:52:34.488Z,67.15
2019-06-26T11:53:34.212Z,66.43
2019-06-26T11:54:34.165Z,67.71
2019-06-26T11:55:34.091Z,67.12
2019-06-26T11:56:34.050Z,70.20
2019-06-26T11:57:33.969Z,67.71
2019-06-26T11:58:33.910Z,67.51
2019-06-26T11:59:33.850Z,68.23
2019-06-26T12:00:33.803Z,66.66
2019-06-26T12:01:33.738Z,68.43
2019-06-26T12:02:33.671Z,69.02
2019-06-26T12:03:33.600Z,68.40
2019-06-26T12:04:33.548Z,69.57
2019-06-26T12:05:33.491Z,70.10
2019-06-26T12:06:33.429Z,70.68
2019-06-26T12:07:33.358Z,69.71
2019-06-26T12:08:33.303Z,69.05
2019-06-26T12:09:33.235Z,70.89
2019-06-26T12:10:33.169Z,70.39
2019-06-26T12:11:33.141Z,70.03
2019-06-26T12:12:33.093Z,70.82
2019-06-26T12:13:33.573Z,69.74
2019-06-26T12:14:32.939Z,69.41
2019-06-26T12:15:32.872Z,68.04
2019-06-26T12:16:32.826Z,69.51
2019-06-26T12:17:32.764Z,68.92
2019-06-26T12:18:32.685Z,68.82
2019-06-26T12:19:32.634Z,69.54
2019-06-26T12:20:32.568Z,68.33
2019-06-26T12:21:32.522Z,68.13
2019-06-26T12:22:32.439Z,68.82
2019-06-26T12:23:32.409Z,67.94
2019-06-26T12:24:32.329Z,68.63
2019-06-26T12:25:32.264Z,68.20
2019-06-26T12:26:32.210Z,69.77
2019-06-26T12:27:32.177Z,70.56
2019-06-26T12:28:32.078Z,70.85
2019-06-26T12:29:33.073Z,70.16
2019-06-26T12:30:31.962Z,67.41
2019-06-26T12:31:31.903Z,67.91
2019-06-26T12:32:41.480Z,70.68
2019-06-26T12:33:31.771Z,68.13
2019-06-26T12:34:31.722Z,67.45
2019-06-26T12:35:31.645Z,68.33
2019-06-26T12:36:31.610Z,68.73
2019-06-26T12:37:37.656Z,69.31
2019-06-26T12:38:31.464Z,69.12
2019-06-26T12:39:31.403Z,68.13
2019-06-26T12:40:31.560Z,68.43
2019-06-26T12:41:31.304Z,68.30
2019-06-26T12:42:31.226Z,70.75
2019-06-26T12:43:31.156Z,69.57
2019-06-26T12:44:31.098Z,69.09
2019-06-26T12:45:31.050Z,68.30
2019-06-26T12:46:30.985Z,69.31
2019-06-26T12:47:30.908Z,68.43
2019-06-26T12:48:30.871Z,69.12
2019-06-26T12:49:30.786Z,68.43
2019-06-26T12:50:35.783Z,68.33
2019-06-26T12:51:30.683Z,67.51